Time;durP1;ratioP1;P1;durP2;ratioP2;P2;SDS_P1;SDS_P2;PMS_P1;PMS_P2;Temp;Humidity;BMP_temperature;BMP_pressure;BME280_temperature;BME280_humidity;BME280_pressure;Samples;Min_cycle;Max_cycle;Signal;HPM_P1;HPM_P2
2023/07/28 00:01:26;;;;;;;0.40;0.40;;;17.30;99.90;17.40;99454.00;;;;4988198;27;108165;-68
2023/07/28 00:03:52;;;;;;;0.60;0.47;;;17.20;99.90;17.40;99461.00;;;;4989153;27;111815;-68
2023/07/28 00:06:18;;;;;;;0.60;0.60;;;17.30;99.90;17.40;99454.00;;;;4989305;28;110682;-69
2023/07/28 00:08:43;;;;;;;1.25;0.65;;;17.30;99.90;17.40;99450.00;;;;4987004;27;111061;-69
2023/07/28 00:11:12;;;;;;;0.30;0.30;;;17.30;99.90;17.50;99457.00;;;;4987059;27;107841;-68
2023/07/28 00:13:38;;;;;;;1.05;0.70;;;17.30;99.90;17.50;99445.00;;;;4988494;27;83798;-67
2023/07/28 00:16:15;;;;;;;0.38;0.38;;;17.40;99.90;17.50;99449.00;;;;4988646;27;83114;-69
2023/07/28 00:18:40;;;;;;;0.45;0.45;;;17.40;99.90;17.50;99443.00;;;;4994559;27;82868;-69
2023/07/28 00:21:06;;;;;;;0.35;0.35;;;17.40;99.90;17.50;99427.00;;;;4992015;27;107223;-68
2023/07/28 00:23:32;;;;;;;0.57;0.52;;;17.40;99.90;17.50;99438.00;;;;4992426;27;83088;-68
2023/07/28 00:25:57;;;;;;;0.75;0.73;;;17.40;99.90;17.50;99435.00;;;;4992097;27;110091;-67
2023/07/28 00:28:23;;;;;;;0.60;0.35;;;17.40;99.90;17.50;99430.00;;;;4993412;27;110659;-67
2023/07/28 00:30:49;;;;;;;0.55;0.45;;;17.40;99.90;17.60;99434.00;;;;4992963;27;109542;-68
2023/07/28 00:33:16;;;;;;;0.80;0.52;;;17.40;99.90;17.60;99432.00;;;;4986557;27;83626;-67
2023/07/28 00:35:42;;;;;;;0.40;0.40;;;17.40;99.90;17.60;99431.00;;;;4987897;27;84041;-68
2023/07/28 00:38:09;;;;;;;0.32;0.28;;;17.50;99.90;17.60;99433.00;;;;4988949;27;111117;-67
2023/07/28 00:40:35;;;;;;;0.38;0.38;;;17.50;99.90;17.60;99424.00;;;;4988723;27;83073;-69
2023/07/28 00:43:01;;;;;;;0.20;0.20;;;17.50;99.90;17.60;99441.00;;;;4989368;27;103789;-69
2023/07/28 00:45:28;;;;;;;1.90;0.32;;;17.50;99.90;17.60;99425.00;;;;4990006;27;90006;-68
2023/07/28 00:47:57;;;;;;;0.52;0.30;;;17.50;99.90;17.60;99425.00;;;;4994919;27;82670;-69
2023/07/28 00:50:23;;;;;;;0.32;0.28;;;17.50;99.90;17.70;99429.00;;;;4992849;27;82809;-67
2023/07/28 00:52:49;;;;;;;0.65;0.45;;;17.50;99.90;17.70;99428.00;;;;4997348;27;109639;-67
2023/07/28 00:55:16;;;;;;;0.50;0.30;;;17.50;99.90;17.70;99432.00;;;;4986732;27;103328;-67
2023/07/28 00:57:41;;;;;;;0.38;0.20;;;17.60;99.90;17.70;99422.00;;;;4985584;27;104929;-68
2023/07/28 01:00:08;;;;;;;0.55;0.32;;;17.60;99.90;17.70;99428.00;;;;4987753;27;108779;-66
2023/07/28 01:02:34;;;;;;;0.57;0.40;;;17.60;99.90;17.70;99427.00;;;;4988237;27;83290;-68
2023/07/28 01:05:00;;;;;;;1.10;0.57;;;17.60;99.90;17.70;99427.00;;;;4993203;27;98872;-68
2023/07/28 01:07:55;;;;;;;0.20;0.20;;;17.60;99.90;17.80;99425.00;;;;4989961;27;82996;-69
2023/07/28 01:10:28;;;;;;;0.80;0.38;;;17.70;99.90;17.80;99418.00;;;;4996530;27;99155;-67
2023/07/28 01:12:54;;;;;;;0.13;0.13;;;17.70;99.90;17.80;99426.00;;;;4990763;27;100151;-68
2023/07/28 01:15:20;;;;;;;0.15;0.15;;;17.70;99.90;17.80;99415.00;;;;4990932;27;111858;-66
2023/07/28 01:17:45;;;;;;;1.10;0.57;;;17.70;99.90;17.80;99419.00;;;;4987627;27;83355;-66
2023/07/28 01:20:11;;;;;;;0.22;0.22;;;17.70;99.90;17.80;99412.00;;;;4989005;27;109095;-66
2023/07/28 01:23:09;;;;;;;0.10;0.10;;;17.70;99.90;17.80;99417.00;;;;4989071;27;111564;-66
2023/07/28 01:26:05;;;;;;;0.40;0.40;;;17.80;99.90;17.80;99408.00;;;;4988066;27;83982;-67
2023/07/28 01:28:34;;;;;;;2.50;0.47;;;17.70;99.90;17.90;99414.00;;;;4992091;27;82923;-66
2023/07/28 01:31:06;;;;;;;0.73;0.38;;;17.70;99.90;17.80;99409.00;;;;4990804;27;101146;-66
2023/07/28 01:33:32;;;;;;;0.43;0.30;;;17.70;99.90;17.80;99407.00;;;;4989444;27;104762;-65
2023/07/28 01:36:00;;;;;;;0.30;0.30;;;17.70;99.90;17.80;99403.00;;;;4988920;27;83060;-66
2023/07/28 01:38:27;;;;;;;0.38;0.28;;;17.70;99.90;17.80;99398.00;;;;4984886;27;84454;-66
2023/07/28 01:40:53;;;;;;;0.28;0.20;;;17.70;99.90;17.70;99400.00;;;;4991458;27;82943;-65
2023/07/28 01:43:19;;;;;;;0.30;0.20;;;17.60;99.90;17.70;99402.00;;;;4984979;27;113283;-65
2023/07/28 01:45:44;;;;;;;0.25;0.25;;;17.60;99.90;17.70;99395.00;;;;4989961;27;83216;-66
2023/07/28 01:48:10;;;;;;;0.25;0.20;;;17.60;99.90;17.70;99394.00;;;;4989168;27;110403;-65
2023/07/28 01:50:37;;;;;;;0.38;0.20;;;17.60;99.90;17.70;99396.00;;;;4990377;27;83900;-66
2023/07/28 01:53:04;;;;;;;0.40;0.40;;;17.60;99.90;17.70;99392.00;;;;4989190;27;83226;-65
2023/07/28 01:55:29;;;;;;;0.90;0.10;;;17.60;99.90;17.80;99398.00;;;;4989308;28;100967;-65
2023/07/28 01:58:01;;;;;;;0.85;0.50;;;17.60;99.90;17.80;99405.00;;;;4989654;27;111044;-65
2023/07/28 02:00:27;;;;;;;0.40;0.40;;;17.70;99.90;17.80;99401.00;;;;4987899;27;82705;-66
2023/07/28 02:02:54;;;;;;;0.30;0.30;;;17.70;99.90;17.80;99410.00;;;;4993811;27;93546;-66
2023/07/28 02:05:20;;;;;;;0.77;0.50;;;17.70;99.90;17.80;99399.00;;;;4985977;27;83529;-67
2023/07/28 02:07:46;;;;;;;0.28;0.28;;;17.70;99.90;17.90;99401.00;;;;4988146;27;81894;-68
2023/07/28 02:10:11;;;;;;;0.85;0.30;;;17.70;99.90;17.90;99402.00;;;;4987473;27;85703;-65
2023/07/28 02:12:39;;;;;;;0.95;0.38;;;17.70;99.90;17.90;99408.00;;;;4987452;27;103469;-65
2023/07/28 02:15:06;;;;;;;0.75;0.40;;;17.70;99.90;17.90;99402.00;;;;4983270;27;83924;-65
2023/07/28 02:17:32;;;;;;;0.30;0.30;;;17.70;99.90;17.90;99411.00;;;;4987154;27;83718;-64
2023/07/28 02:19:58;;;;;;;0.40;0.40;;;17.70;99.90;17.90;99400.00;;;;4990581;27;103187;-65
2023/07/28 02:22:23;;;;;;;2.70;0.50;;;17.80;99.90;17.90;99401.00;;;;4987950;27;111184;-67
2023/07/28 02:24:49;;;;;;;0.40;0.35;;;17.80;99.90;17.90;99396.00;;;;4991000;27;110764;-65
2023/07/28 02:27:15;;;;;;;0.32;0.32;;;17.80;99.90;18.00;99411.00;;;;4990848;27;110699;-65
2023/07/28 02:29:41;;;;;;;0.40;0.40;;;17.80;99.90;18.00;99401.00;;;;4989723;27;94738;-65
2023/07/28 02:32:07;;;;;;;7.22;0.93;;;17.90;99.90;18.00;99403.00;;;;4992843;27;83672;-65
2023/07/28 02:34:33;;;;;;;0.85;0.40;;;17.90;99.90;18.00;99406.00;;;;4988925;27;87308;-66
2023/07/28 02:36:59;;;;;;;0.60;0.55;;;17.90;99.90;17.90;99411.00;;;;4991178;27;110825;-66
2023/07/28 02:39:25;;;;;;;0.38;0.38;;;17.80;99.90;17.90;99405.00;;;;4986876;27;108750;-66
2023/07/28 02:41:51;;;;;;;0.38;0.30;;;17.80;99.90;17.90;99404.00;;;;4986063;27;112145;-66
2023/07/28 02:44:16;;;;;;;0.63;0.43;;;17.70;99.90;17.80;99406.00;;;;4985099;27;112920;-66
2023/07/28 02:46:42;;;;;;;1.63;0.40;;;17.70;99.90;17.80;99396.00;;;;4992671;27;109019;-67
2023/07/28 02:49:08;;;;;;;0.40;0.40;;;17.70;99.90;17.80;99400.00;;;;4986827;27;82839;-66
2023/07/28 02:51:34;;;;;;;0.40;0.38;;;17.60;99.90;17.70;99401.00;;;;4988089;27;99391;-68
2023/07/28 02:54:00;;;;;;;0.30;0.30;;;17.60;99.90;17.70;99396.00;;;;4989400;27;82877;-67
2023/07/28 02:56:26;;;;;;;1.23;0.52;;;17.60;99.90;17.70;99394.00;;;;4987079;27;100487;-66
2023/07/28 02:58:51;;;;;;;0.68;0.40;;;17.60;99.90;17.70;99395.00;;;;4985883;27;82756;-67
2023/07/28 03:01:17;;;;;;;0.88;0.57;;;17.50;99.90;17.70;99388.00;;;;4993170;27;112481;-66
2023/07/28 03:03:43;;;;;;;0.43;0.43;;;17.50;99.90;17.70;99391.00;;;;4984841;27;112933;-65
2023/07/28 03:06:09;;;;;;;0.30;0.30;;;17.50;99.90;17.60;99390.00;;;;4992557;27;82682;-67
2023/07/28 03:08:35;;;;;;;0.63;0.50;;;17.50;99.90;17.60;99381.00;;;;4986866;27;83970;-66
2023/07/28 03:11:03;;;;;;;0.55;0.47;;;17.50;99.90;17.60;99389.00;;;;4985058;27;110366;-66
2023/07/28 03:13:29;;;;;;;0.60;0.55;;;17.50;99.90;17.60;99387.00;;;;4988336;27;83071;-67
2023/07/28 03:15:55;;;;;;;1.02;0.70;;;17.50;99.90;17.60;99405.00;;;;4988383;27;108405;-66
2023/07/28 03:18:20;;;;;;;0.47;0.47;;;17.50;99.90;17.60;99397.00;;;;4988028;27;108350;-66
2023/07/28 03:20:47;;;;;;;0.80;0.60;;;17.50;99.90;17.70;99395.00;;;;4968196;27;83131;-66
2023/07/28 03:23:13;;;;;;;1.63;0.88;;;17.50;99.90;17.70;99395.00;;;;4987540;27;111353;-67
2023/07/28 03:25:38;;;;;;;1.55;0.98;;;17.50;99.90;17.70;99409.00;;;;4990289;27;102597;-67
2023/07/28 03:28:04;;;;;;;1.20;0.63;;;17.50;99.90;17.70;99399.00;;;;4988990;27;107718;-67
2023/07/28 03:30:30;;;;;;;1.95;0.50;;;17.50;99.90;17.70;99402.00;;;;4981994;27;112754;-67
2023/07/28 03:32:55;;;;;;;3.42;0.80;;;17.50;99.90;17.70;99410.00;;;;4991027;27;111846;-67
2023/07/28 03:35:21;;;;;;;0.90;0.57;;;17.60;99.90;17.70;99409.00;;;;4984702;27;111213;-67
2023/07/28 03:37:47;;;;;;;0.95;0.65;;;17.60;99.90;17.70;99413.00;;;;4990593;27;82775;-67
2023/07/28 03:40:13;;;;;;;0.63;0.40;;;17.60;99.90;17.70;99409.00;;;;4989465;27;113608;-67
2023/07/28 03:42:38;;;;;;;0.25;0.25;;;17.60;99.90;17.80;99403.00;;;;4989327;27;113176;-67
2023/07/28 03:45:05;;;;;;;0.30;0.30;;;17.60;99.90;17.80;99402.00;;;;4990113;27;110070;-67
2023/07/28 03:47:31;;;;;;;1.17;0.40;;;17.60;99.90;17.80;99406.00;;;;4992669;27;90469;-66
2023/07/28 03:49:56;;;;;;;1.48;0.68;;;17.60;99.90;17.80;99400.00;;;;4995052;27;111927;-66
2023/07/28 03:52:22;;;;;;;1.20;0.60;;;17.60;99.90;17.80;99411.00;;;;4992662;28;101543;-66
2023/07/28 03:54:48;;;;;;;0.60;0.60;;;17.70;99.90;17.90;99401.00;;;;4992944;28;82750;-67
2023/07/28 03:57:13;;;;;;;0.32;0.22;;;17.60;99.90;17.90;99408.00;;;;4991044;27;109882;-66
2023/07/28 03:59:39;;;;;;;0.80;0.50;;;17.70;99.90;17.90;99403.00;;;;4996772;27;101973;-66
2023/07/28 04:02:05;;;;;;;0.90;0.63;;;17.80;99.90;18.00;99406.00;;;;4998354;27;111671;-65
2023/07/28 04:04:30;;;;;;;0.95;0.63;;;17.80;99.90;18.00;99419.00;;;;4997518;27;109456;-65
2023/07/28 04:06:56;;;;;;;1.73;0.70;;;17.90;99.90;18.10;99411.00;;;;4987980;27;107441;-65
2023/07/28 04:09:22;;;;;;;0.57;0.45;;;17.90;99.90;18.10;99404.00;;;;4996838;27;111202;-65
2023/07/28 04:11:47;;;;;;;1.17;0.43;;;18.00;99.90;18.20;99408.00;;;;4985174;27;112184;-64
2023/07/28 04:14:14;;;;;;;1.42;0.77;;;18.00;99.90;18.20;99416.00;;;;4988681;27;111309;-65
2023/07/28 04:16:40;;;;;;;0.30;0.30;;;18.00;99.90;18.20;99413.00;;;;4987706;27;84217;-65
2023/07/28 04:19:06;;;;;;;0.57;0.57;;;18.10;99.90;18.20;99425.00;;;;4985186;27;92861;-65
2023/07/28 04:21:32;;;;;;;0.47;0.43;;;18.10;99.90;18.20;99402.00;;;;4986446;27;101159;-64
2023/07/28 04:23:57;;;;;;;1.05;0.55;;;18.10;99.90;18.20;99411.00;;;;4988453;27;107896;-65
2023/07/28 04:26:24;;;;;;;1.85;0.43;;;18.10;99.90;18.30;99414.00;;;;4986878;27;107318;-67
2023/07/28 04:28:50;;;;;;;1.63;0.82;;;18.10;99.90;18.30;99422.00;;;;4988941;27;109389;-66
2023/07/28 04:31:16;;;;;;;0.70;0.40;;;18.10;99.90;18.30;99410.00;;;;4987840;27;82996;-66
2023/07/28 04:33:42;;;;;;;0.77;0.40;;;18.20;99.90;18.30;99419.00;;;;4992712;27;109129;-64
2023/07/28 04:36:09;;;;;;;0.65;0.40;;;18.20;99.90;18.40;99420.00;;;;4990350;27;82792;-64
2023/07/28 04:38:34;;;;;;;0.57;0.22;;;18.20;99.90;18.40;99429.00;;;;4988226;27;83378;-65
2023/07/28 04:41:00;;;;;;;0.40;0.40;;;18.30;99.90;18.40;99408.00;;;;4985143;27;112072;-64
2023/07/28 04:43:26;;;;;;;0.90;0.70;;;18.30;99.90;18.40;99410.00;;;;4977572;27;103066;-65
2023/07/28 04:45:51;;;;;;;0.32;0.30;;;18.30;99.90;18.50;99412.00;;;;4982521;27;94966;-64
2023/07/28 04:48:17;;;;;;;0.95;0.40;;;18.30;99.90;18.50;99424.00;;;;4987837;27;111328;-64
2023/07/28 04:50:45;;;;;;;2.70;0.65;;;18.40;99.90;18.50;99414.00;;;;4987941;27;109852;-65
2023/07/28 04:53:10;;;;;;;0.40;0.40;;;18.40;99.90;18.50;99411.00;;;;4985553;27;91723;-65
2023/07/28 04:55:36;;;;;;;1.52;0.93;;;18.40;99.90;18.60;99414.00;;;;4986839;27;108886;-64
2023/07/28 04:58:02;;;;;;;0.75;0.75;;;18.40;99.90;18.60;99422.00;;;;4987287;27;90707;-65
2023/07/28 05:00:28;;;;;;;0.57;0.50;;;18.40;99.90;18.60;99421.00;;;;4985973;27;112099;-65
2023/07/28 05:02:53;;;;;;;0.40;0.40;;;18.50;99.90;18.70;99429.00;;;;4993020;27;84344;-64
2023/07/28 05:05:19;;;;;;;0.30;0.30;;;18.50;99.90;18.70;99431.00;;;;4988408;27;108998;-65
2023/07/28 05:07:45;;;;;;;0.65;0.50;;;18.50;99.90;18.70;99438.00;;;;4991600;27;112530;-64
2023/07/28 05:10:10;;;;;;;0.82;0.65;;;18.60;99.90;18.80;99430.00;;;;4987150;27;104874;-65
2023/07/28 05:12:36;;;;;;;0.95;0.35;;;18.60;99.90;18.80;99432.00;;;;4987525;27;110359;-63
2023/07/28 05:15:02;;;;;;;0.38;0.32;;;18.60;99.90;18.80;99435.00;;;;4986846;27;82831;-65
2023/07/28 05:17:28;;;;;;;0.28;0.28;;;18.70;99.90;18.80;99441.00;;;;4992124;27;83713;-64
2023/07/28 05:19:53;;;;;;;0.88;0.25;;;18.70;99.90;18.90;99444.00;;;;4997308;27;106239;-64
2023/07/28 05:22:19;;;;;;;0.85;0.60;;;18.70;99.90;18.90;99441.00;;;;4988855;27;89288;-65
2023/07/28 05:24:45;;;;;;;0.63;0.60;;;18.70;99.90;18.90;99447.00;;;;4993558;27;109003;-65
2023/07/28 05:27:12;;;;;;;0.88;0.47;;;18.80;99.90;18.90;99447.00;;;;4991272;27;112285;-64
2023/07/28 05:29:37;;;;;;;0.35;0.32;;;18.80;99.90;18.90;99442.00;;;;4988057;27;93842;-64
2023/07/28 05:32:04;;;;;;;0.35;0.30;;;19.00;99.90;18.90;99454.00;;;;4992329;27;104036;-65
2023/07/28 05:34:29;;;;;;;0.47;0.30;;;18.80;99.90;19.00;99449.00;;;;4989890;27;100716;-64
2023/07/28 05:36:55;;;;;;;0.25;0.25;;;18.80;99.90;19.00;99446.00;;;;4993118;27;111634;-64
2023/07/28 05:39:21;;;;;;;0.50;0.50;;;18.80;99.90;19.00;99448.00;;;;4994068;27;93762;-65
2023/07/28 05:41:47;;;;;;;0.25;0.20;;;18.80;99.90;19.00;99443.00;;;;4996417;27;83001;-65
2023/07/28 05:44:13;;;;;;;0.20;0.20;;;18.90;99.90;19.00;99450.00;;;;4987936;27;83114;-65
2023/07/28 05:46:39;;;;;;;0.28;0.28;;;18.90;99.90;19.00;99450.00;;;;4988420;27;104901;-65
2023/07/28 05:49:05;;;;;;;0.30;0.30;;;18.90;99.90;19.00;99451.00;;;;4988784;27;111532;-64
2023/07/28 05:51:31;;;;;;;0.20;0.20;;;18.90;99.90;19.10;99454.00;;;;4989799;27;109680;-65
2023/07/28 05:53:57;;;;;;;0.28;0.10;;;18.90;99.90;19.10;99451.00;;;;4990703;27;86923;-64
2023/07/28 05:56:23;;;;;;;0.20;0.20;;;18.90;99.90;19.10;99454.00;;;;4989276;27;113114;-65
2023/07/28 05:58:49;;;;;;;0.20;0.20;;;18.90;99.90;19.20;99460.00;;;;4985884;27;83484;-63
2023/07/28 06:01:16;;;;;;;0.35;0.30;;;19.00;99.90;19.30;99447.00;;;;4986207;27;83098;-65
2023/07/28 06:03:41;;;;;;;0.55;0.55;;;19.10;99.90;19.40;99453.00;;;;4984555;27;82891;-63
2023/07/28 06:06:07;;;;;;;0.60;0.40;;;19.20;99.90;19.50;99464.00;;;;4990597;27;101463;-64
2023/07/28 06:08:34;;;;;;;0.55;0.50;;;19.30;99.90;19.50;99462.00;;;;4985003;27;111078;-63
2023/07/28 06:10:59;;;;;;;0.95;0.55;;;19.30;99.90;19.60;99474.00;;;;4987764;27;100824;-64
2023/07/28 06:13:25;;;;;;;0.30;0.22;;;19.40;99.90;19.70;99468.00;;;;4986990;27;108404;-64
2023/07/28 06:15:54;;;;;;;3.10;0.30;;;19.50;99.90;19.70;99481.00;;;;4989809;27;97141;-64
2023/07/28 06:18:22;;;;;;;0.47;0.35;;;19.50;99.90;19.80;99464.00;;;;4989990;27;83778;-64
2023/07/28 06:20:47;;;;;;;0.20;0.15;;;19.60;99.90;19.80;99480.00;;;;4989700;27;82908;-64
2023/07/28 06:23:13;;;;;;;0.38;0.38;;;19.70;99.90;19.90;99470.00;;;;4986249;27;106478;-63
2023/07/28 06:25:44;;;;;;;6.40;0.30;;;19.70;99.90;19.90;99474.00;;;;4990337;27;83369;-64
2023/07/28 06:28:13;;;;;;;0.20;0.20;;;19.70;99.90;20.10;99470.00;;;;4990675;27;83561;-64
2023/07/28 06:30:39;;;;;;;0.20;0.20;;;19.90;99.90;20.20;99471.00;;;;4983524;27;99446;-63
2023/07/28 06:33:06;;;;;;;0.50;0.50;;;20.00;99.90;20.40;99477.00;;;;4986169;27;82832;-64
2023/07/28 06:35:32;;;;;;;0.30;0.20;;;20.20;99.90;20.60;99491.00;;;;4992769;27;95614;-64
2023/07/28 06:38:01;;;;;;;0.40;0.40;;;20.30;99.90;20.70;99489.00;;;;4990652;27;103584;-63
2023/07/28 06:40:26;;;;;;;0.45;0.38;;;20.50;99.90;20.90;99490.00;;;;4993937;27;82990;-64
2023/07/28 06:42:52;;;;;;;0.70;0.25;;;20.70;99.90;21.10;99499.00;;;;4987856;27;108800;-64
2023/07/28 06:45:18;;;;;;;0.20;0.20;;;20.80;99.90;21.20;99492.00;;;;4987107;27;112214;-63
2023/07/28 06:47:43;;;;;;;0.52;0.50;;;21.00;99.90;21.20;99491.00;;;;4992315;27;84479;-64
2023/07/28 06:50:11;;;;;;;0.20;0.20;;;21.00;99.90;21.20;99517.00;;;;4988257;27;95414;-64
2023/07/28 06:52:37;;;;;;;0.20;0.20;;;21.00;99.90;21.10;99520.00;;;;4985191;27;82636;-63
2023/07/28 06:55:03;;;;;;;0.30;0.28;;;21.00;99.90;21.10;99513.00;;;;4984061;27;112511;-63
2023/07/28 06:57:30;;;;;;;0.30;0.30;;;21.00;99.90;21.00;99506.00;;;;4988285;27;82653;-64
2023/07/28 06:59:56;;;;;;;0.20;0.20;;;20.90;99.90;21.00;99522.00;;;;4988198;27;83526;-63
2023/07/28 07:02:22;;;;;;;0.20;0.20;;;20.80;99.90;21.00;99516.00;;;;4986236;27;82823;-63
2023/07/28 07:04:47;;;;;;;0.28;0.28;;;20.80;99.90;21.00;99520.00;;;;4990693;27;102368;-65
2023/07/28 07:07:13;;;;;;;0.32;0.32;;;20.80;99.90;21.00;99527.00;;;;4986853;27;111556;-64
2023/07/28 07:09:39;;;;;;;0.55;0.40;;;20.80;99.90;21.00;99527.00;;;;4986777;27;109333;-63
2023/07/28 07:12:05;;;;;;;0.40;0.40;;;20.80;99.90;21.00;99533.00;;;;4989095;27;97771;-64
2023/07/28 07:14:31;;;;;;;0.50;0.50;;;20.80;99.90;21.10;99538.00;;;;4996771;27;83020;-64
2023/07/28 07:16:57;;;;;;;0.50;0.43;;;20.90;99.90;21.20;99527.00;;;;4986837;27;98952;-63
2023/07/28 07:19:22;;;;;;;0.73;0.50;;;20.90;99.90;21.20;99530.00;;;;4989768;27;110454;-64
2023/07/28 07:21:49;;;;;;;0.22;0.22;;;21.00;99.90;21.20;99542.00;;;;4989068;27;82637;-65
2023/07/28 07:24:15;;;;;;;0.17;0.17;;;21.00;99.90;21.20;99553.00;;;;4986399;27;82450;-63
2023/07/28 07:26:41;;;;;;;1.20;0.57;;;21.00;99.90;21.20;99545.00;;;;4989741;27;112495;-63
2023/07/28 07:29:08;;;;;;;0.40;0.40;;;21.00;99.90;21.10;99546.00;;;;4989680;27;82836;-64
2023/07/28 07:31:34;;;;;;;0.47;0.47;;;21.00;99.90;21.10;99560.00;;;;4986710;27;83680;-63
2023/07/28 07:34:00;;;;;;;0.20;0.20;;;21.00;99.90;21.10;99543.00;;;;4984574;27;111783;-64
2023/07/28 07:36:25;;;;;;;0.60;0.22;;;20.90;99.90;21.00;99561.00;;;;4989026;27;84064;-64
2023/07/28 07:38:51;;;;;;;0.20;0.20;;;20.90;99.90;21.00;99566.00;;;;4989293;27;110459;-63
2023/07/28 07:41:20;;;;;;;0.50;0.40;;;20.80;99.90;20.90;99567.00;;;;4988953;27;90396;-63
2023/07/28 07:43:52;;;;;;;0.82;0.57;;;20.80;99.90;20.90;99568.00;;;;4992635;27;83189;-64
2023/07/28 07:46:19;;;;;;;0.38;0.30;;;20.70;99.90;20.90;99557.00;;;;4989010;27;82868;-64
2023/07/28 07:48:45;;;;;;;0.45;0.40;;;20.70;99.90;20.90;99565.00;;;;4992476;27;82367;-65
2023/07/28 07:51:11;;;;;;;2.25;0.73;;;20.70;99.90;20.90;99579.00;;;;4988421;27;99753;-66
2023/07/28 07:53:37;;;;;;;1.30;0.65;;;20.70;99.90;21.00;99576.00;;;;4985161;27;83864;-65
2023/07/28 07:56:04;;;;;;;0.70;0.70;;;20.80;99.90;21.00;99568.00;;;;4984293;27;83632;-64
2023/07/28 07:58:30;;;;;;;0.68;0.43;;;20.80;99.90;21.10;99574.00;;;;4988153;28;86621;-63
2023/07/28 08:00:56;;;;;;;0.43;0.25;;;20.90;99.90;21.10;99577.00;;;;4986405;27;107742;-63
2023/07/28 08:03:22;;;;;;;0.17;0.17;;;20.90;99.90;21.10;99576.00;;;;4992015;27;97765;-63
2023/07/28 08:05:48;;;;;;;0.65;0.40;;;20.90;99.90;21.10;99580.00;;;;4991995;27;83277;-63
2023/07/28 08:08:17;;;;;;;0.40;0.40;;;20.90;99.90;21.20;99584.00;;;;4984302;27;110140;-63
2023/07/28 08:10:43;;;;;;;0.40;0.40;;;20.90;99.90;21.20;99575.00;;;;4993368;27;83007;-62
2023/07/28 08:13:09;;;;;;;0.40;0.30;;;21.00;99.90;21.30;99576.00;;;;4986488;27;82726;-63
2023/07/28 08:15:35;;;;;;;0.43;0.28;;;21.10;99.90;21.40;99572.00;;;;4983245;27;92381;-63
2023/07/28 08:18:01;;;;;;;0.30;0.30;;;21.10;99.90;21.60;99585.00;;;;4987760;27;110827;-64
2023/07/28 08:20:26;;;;;;;0.30;0.30;;;21.30;99.90;21.90;99590.00;;;;4987616;27;109310;-63
2023/07/28 08:22:52;;;;;;;0.52;0.50;;;21.60;99.90;22.00;99585.00;;;;4984121;27;110426;-63
2023/07/28 08:25:18;;;;;;;0.45;0.45;;;21.70;99.90;22.20;99588.00;;;;4987989;27;101707;-63
2023/07/28 08:27:44;;;;;;;1.13;0.43;;;21.90;99.90;22.30;99582.00;;;;4991161;27;82581;-63
2023/07/28 08:30:10;;;;;;;0.43;0.43;;;22.10;99.90;22.50;99590.00;;;;4986557;27;108917;-63
2023/07/28 08:32:36;;;;;;;0.40;0.40;;;22.20;99.90;22.50;99586.00;;;;4990815;27;84031;-64
2023/07/28 08:35:03;;;;;;;0.55;0.38;;;22.30;99.90;22.60;99599.00;;;;4990269;27;98538;-63
2023/07/28 08:37:29;;;;;;;0.20;0.20;;;22.30;99.90;22.60;99596.00;;;;4990738;27;81922;-63
2023/07/28 08:39:54;;;;;;;0.50;0.50;;;22.40;99.90;22.70;99600.00;;;;4988168;27;86096;-63
2023/07/28 08:42:22;;;;;;;1.08;0.30;;;22.50;99.90;22.70;99593.00;;;;4989393;27;101089;-63
2023/07/28 08:44:48;;;;;;;0.32;0.30;;;22.50;99.90;22.60;99593.00;;;;4994592;27;83419;-64
2023/07/28 08:47:15;;;;;;;0.82;0.73;;;22.50;99.90;22.60;99594.00;;;;4991346;27;110589;-64
2023/07/28 08:49:41;;;;;;;0.60;0.60;;;22.40;99.90;22.60;99578.00;;;;4990586;27;84121;-64
2023/07/28 08:52:07;;;;;;;0.47;0.47;;;22.40;99.90;22.60;99594.00;;;;4993665;27;83355;-63
2023/07/28 08:54:33;;;;;;;0.40;0.40;;;22.40;99.90;22.70;99583.00;;;;4988898;27;104770;-65
2023/07/28 08:56:58;;;;;;;0.60;0.50;;;22.50;99.90;22.90;99598.00;;;;4991458;27;109353;-63
2023/07/28 08:59:27;;;;;;;0.40;0.40;;;22.60;99.90;23.10;99602.00;;;;4990695;27;108167;-62
2023/07/28 09:01:59;;;;;;;0.30;0.30;;;22.80;99.90;23.30;99610.00;;;;4994617;27;83447;-64
2023/07/28 09:04:25;;;;;;;0.32;0.32;;;23.00;99.90;23.50;99611.00;;;;4991741;27;83164;-64
2023/07/28 09:06:51;;;;;;;1.15;0.63;;;23.20;99.90;23.70;99593.00;;;;4993574;27;90205;-63
2023/07/28 09:09:24;;;;;;;0.45;0.45;;;23.40;99.90;23.90;99602.00;;;;4994715;27;84114;-63
2023/07/28 09:11:54;;;;;;;0.50;0.50;;;23.50;99.90;24.00;99609.00;;;;4989779;27;84679;-62
2023/07/28 09:14:23;;;;;;;0.40;0.40;;;23.70;99.90;24.10;99611.00;;;;4986655;27;111490;-64
2023/07/28 09:16:49;;;;;;;0.28;0.28;;;23.80;99.90;24.10;99613.00;;;;4990578;27;83658;-63
2023/07/28 09:19:15;;;;;;;0.43;0.43;;;23.80;99.90;24.20;99620.00;;;;4994114;27;83159;-63
2023/07/28 09:21:45;;;;;;;0.40;0.40;;;23.90;99.90;24.20;99615.00;;;;4991463;27;111799;-63
2023/07/28 09:24:12;;;;;;;0.45;0.40;;;24.00;99.90;24.30;99621.00;;;;4986686;27;83342;-64
2023/07/28 09:26:48;;;;;;;0.38;0.38;;;24.10;99.90;24.40;99616.00;;;;4993500;27;90444;-64
2023/07/28 09:29:23;;;;;;;0.70;0.40;;;24.10;99.90;24.60;99626.00;;;;4989498;28;83113;-62
2023/07/28 09:31:49;;;;;;;0.35;0.35;;;24.30;99.70;24.70;99615.00;;;;4989665;27;83010;-64
2023/07/28 09:34:28;;;;;;;0.35;0.35;;;24.40;99.60;24.90;99621.00;;;;4982980;27;84082;-64
2023/07/28 09:36:55;;;;;;;1.10;0.30;;;24.60;98.30;24.90;99623.00;;;;4989847;27;82582;-63
2023/07/28 09:39:21;;;;;;;0.50;0.50;;;24.60;97.50;24.90;99621.00;;;;4989237;27;82563;-64
2023/07/28 09:41:47;;;;;;;0.55;0.40;;;24.60;97.70;24.90;99630.00;;;;4989197;28;106688;-63
2023/07/28 09:44:15;;;;;;;0.40;0.40;;;24.70;97.30;25.00;99636.00;;;;4985181;27;83154;-64
2023/07/28 09:46:57;;;;;;;0.43;0.43;;;24.70;97.30;25.10;99628.00;;;;4989624;28;82708;-65
2023/07/28 09:49:31;;;;;;;0.60;0.57;;;24.80;97.60;25.20;99636.00;;;;4984850;27;82386;-64
2023/07/28 09:52:04;;;;;;;0.65;0.55;;;24.90;97.00;25.20;99630.00;;;;4988273;27;83052;-63
2023/07/28 09:54:34;;;;;;;0.38;0.38;;;25.00;96.60;25.20;99645.00;;;;4986995;27;86138;-65
2023/07/28 09:56:59;;;;;;;0.30;0.30;;;25.00;96.10;25.20;99654.00;;;;4987798;27;83102;-64
2023/07/28 09:59:37;;;;;;;1.05;0.63;;;25.00;96.20;25.20;99646.00;;;;4984992;28;108086;-64
2023/07/28 10:02:03;;;;;;;0.80;0.50;;;25.00;96.20;25.20;99640.00;;;;4985124;28;82787;-65
2023/07/28 10:04:30;;;;;;;0.30;0.30;;;24.90;96.00;25.10;99650.00;;;;4986982;28;99957;-64
2023/07/28 10:06:56;;;;;;;0.50;0.40;;;24.90;95.80;25.00;99644.00;;;;4988665;27;82826;-64
2023/07/28 10:09:26;;;;;;;0.52;0.40;;;24.80;96.00;25.00;99642.00;;;;4986658;28;109161;-64
2023/07/28 10:11:53;;;;;;;0.30;0.30;;;24.80;95.70;25.00;99653.00;;;;4993164;27;83519;-64
2023/07/28 10:14:31;;;;;;;0.30;0.30;;;24.80;95.50;24.90;99651.00;;;;4995126;27;103043;-64
2023/07/28 10:17:01;;;;;;;0.40;0.40;;;24.70;95.30;24.90;99647.00;;;;4999295;27;84121;-65
2023/07/28 10:19:28;;;;;;;0.40;0.40;;;24.60;95.30;24.80;99642.00;;;;4994262;27;82848;-64
2023/07/28 10:22:26;;;;;;;0.30;0.22;;;24.60;95.30;24.70;99646.00;;;;4993265;27;93309;-63
2023/07/28 10:24:57;;;;;;;0.30;0.30;;;24.50;95.40;24.70;99640.00;;;;4988670;28;83809;-63
2023/07/28 10:27:36;;;;;;;0.30;0.30;;;24.50;95.40;24.80;99641.00;;;;4982113;28;82661;-63
2023/07/28 10:30:09;;;;;;;0.40;0.40;;;24.50;95.70;24.90;99647.00;;;;4989648;27;82867;-63
2023/07/28 10:32:41;;;;;;;0.30;0.30;;;24.60;95.80;25.10;99637.00;;;;4990564;27;82998;-64
2023/07/28 10:35:14;;;;;;;0.20;0.20;;;24.70;95.90;25.20;99648.00;;;;4988853;27;82854;-65
2023/07/28 10:37:44;;;;;;;0.68;0.38;;;24.90;94.80;25.30;99640.00;;;;4984957;28;82793;-64
2023/07/28 10:40:34;;;;;;;0.22;0.22;;;25.00;94.50;25.20;99652.00;;;;4988454;27;84010;-64
2023/07/28 10:43:01;;;;;;;0.55;0.30;;;25.00;94.30;25.30;99650.00;;;;4991318;27;82973;-64
2023/07/28 10:45:29;;;;;;;0.20;0.20;;;25.00;93.90;25.30;99648.00;;;;4988822;27;98348;-64
2023/07/28 10:47:59;;;;;;;0.40;0.40;;;25.00;94.00;25.40;99656.00;;;;4990203;27;83110;-63
2023/07/28 10:50:30;;;;;;;0.32;0.32;;;25.10;93.90;25.50;99652.00;;;;4992314;27;83999;-64